sensor_id;sensor_type;location;lat;lon;timestamp;noise_LAeq;noise_LA_min;noise_LA_max;noise_LA01;noise_LA95
79288;Laerm;68737;53.946;27.634;2023-04-10T00:02:00;42.758980;39.022118;48.054237;;
79288;Laerm;68737;53.946;27.634;2023-04-10T00:04:30;42.166306;37.904251;47.779633;;
79288;Laerm;68737;53.946;27.634;2023-04-10T00:07:00;43.186638;38.700722;49.156769;;
79288;Laerm;68737;53.946;27.634;2023-04-10T00:09:30;44.628365;38.614502;56.679298;;
79288;Laerm;68737;53.946;27.634;2023-04-10T00:11:59;43.125259;38.429543;55.290154;;
79288;Laerm;68737;53.946;27.634;2023-04-10T00:14:30;47.620079;39.986977;59.218937;;
79288;Laerm;68737;53.946;27.634;2023-04-10T00:17:00;43.863129;39.453415;53.264778;;
79288;Laerm;68737;53.946;27.634;2023-04-10T00:19:30;43.000458;38.975853;52.114525;;
79288;Laerm;68737;53.946;27.634;2023-04-10T00:21:59;42.364388;38.128540;51.339058;;
79288;Laerm;68737;53.946;27.634;2023-04-10T00:24:29;42.222000;38.479858;49.494354;;
79288;Laerm;68737;53.946;27.634;2023-04-10T00:26:59;44.639137;39.821289;55.150459;;
79288;Laerm;68737;53.946;27.634;2023-04-10T00:29:29;43.708809;38.843590;51.025703;;
79288;Laerm;68737;53.946;27.634;2023-04-10T00:31:59;45.484909;39.278076;58.183998;;
79288;Laerm;68737;53.946;27.634;2023-04-10T00:34:29;43.337311;38.223366;52.541962;;
79288;Laerm;68737;53.946;27.634;2023-04-10T00:36:59;43.151062;38.584923;48.649582;;
79288;Laerm;68737;53.946;27.634;2023-04-10T00:39:29;43.687691;38.404556;62.303448;;
79288;Laerm;68737;53.946;27.634;2023-04-10T00:41:59;42.046646;39.135429;48.063179;;
79288;Laerm;68737;53.946;27.634;2023-04-10T00:44:29;45.145561;38.870865;55.086510;;
79288;Laerm;68737;53.946;27.634;2023-04-10T00:46:59;43.809204;39.393204;54.020393;;
79288;Laerm;68737;53.946;27.634;2023-04-10T00:49:29;52.944244;40.293648;68.807388;;
79288;Laerm;68737;53.946;27.634;2023-04-10T00:51:59;48.989784;40.268967;66.902344;;
79288;Laerm;68737;53.946;27.634;2023-04-10T00:54:30;46.992287;39.553696;54.643654;;
79288;Laerm;68737;53.946;27.634;2023-04-10T00:56:59;47.115280;39.449997;56.230873;;
79288;Laerm;68737;53.946;27.634;2023-04-10T00:59:30;44.355492;39.518898;50.329330;;
79288;Laerm;68737;53.946;27.634;2023-04-10T01:02:00;47.671326;40.974136;62.048111;;
79288;Laerm;68737;53.946;27.634;2023-04-10T01:04:29;46.064972;38.724556;55.020233;;
79288;Laerm;68737;53.946;27.634;2023-04-10T01:14:31;43.444321;38.958740;51.970360;;
79288;Laerm;68737;53.946;27.634;2023-04-10T01:17:00;45.193138;40.067192;57.689865;;
79288;Laerm;68737;53.946;27.634;2023-04-10T01:21:59;43.449142;38.983009;51.414146;;
79288;Laerm;68737;53.946;27.634;2023-04-10T01:24:35;41.303673;37.831802;52.518311;;
79288;Laerm;68737;53.946;27.634;2023-04-10T01:29:29;43.426147;40.313255;52.728928;;
79288;Laerm;68737;53.946;27.634;2023-04-10T01:37:00;45.207130;41.020355;51.473228;;
79288;Laerm;68737;53.946;27.634;2023-04-10T01:39:30;48.830238;38.321884;65.768494;;
79288;Laerm;68737;53.946;27.634;2023-04-10T01:41:59;42.915573;38.279068;48.067802;;
79288;Laerm;68737;53.946;27.634;2023-04-10T01:44:29;48.164192;41.369545;56.245430;;
79288;Laerm;68737;53.946;27.634;2023-04-10T01:46:59;47.314217;41.916183;56.891357;;
79288;Laerm;68737;53.946;27.634;2023-04-10T01:49:29;45.628761;41.466751;52.857201;;
79288;Laerm;68737;53.946;27.634;2023-04-10T01:51:59;48.315285;39.292633;58.006561;;
79288;Laerm;68737;53.946;27.634;2023-04-10T01:54:30;47.526230;39.424942;73.260712;;
79288;Laerm;68737;53.946;27.634;2023-04-10T01:57:00;44.554390;39.829796;52.840591;;
79288;Laerm;68737;53.946;27.634;2023-04-10T01:59:29;47.792274;41.497406;56.794319;;
79288;Laerm;68737;53.946;27.634;2023-04-10T02:02:00;46.912437;41.114746;57.071136;;
79288;Laerm;68737;53.946;27.634;2023-04-10T02:04:29;46.894791;40.736595;56.871269;;
79288;Laerm;68737;53.946;27.634;2023-04-10T02:12:01;49.229584;41.399063;62.736637;;
79288;Laerm;68737;53.946;27.634;2023-04-10T02:14:30;47.263100;42.356529;58.491875;;
79288;Laerm;68737;53.946;27.634;2023-04-10T02:17:00;48.031105;42.556427;55.582283;;
79288;Laerm;68737;53.946;27.634;2023-04-10T02:19:29;46.178398;40.946243;53.064804;;
79288;Laerm;68737;53.946;27.634;2023-04-10T02:21:59;48.263214;42.757469;60.593102;;
79288;Laerm;68737;53.946;27.634;2023-04-10T02:24:29;49.421799;43.929741;58.781319;;
79288;Laerm;68737;53.946;27.634;2023-04-10T02:26:59;49.536644;44.045525;58.558990;;
79288;Laerm;68737;53.946;27.634;2023-04-10T02:29:29;46.576691;41.924057;51.494469;;
79288;Laerm;68737;53.946;27.634;2023-04-10T02:31:59;50.395035;43.774574;65.223404;;
79288;Laerm;68737;53.946;27.634;2023-04-10T02:34:29;50.642899;45.359962;56.847939;;
79288;Laerm;68737;53.946;27.634;2023-04-10T02:36:59;51.042374;45.708397;59.828842;;
79288;Laerm;68737;53.946;27.634;2023-04-10T02:39:29;50.507874;45.003403;58.523125;;
79288;Laerm;68737;53.946;27.634;2023-04-10T02:41:59;50.955841;44.289062;60.920906;;
79288;Laerm;68737;53.946;27.634;2023-04-10T02:44:29;49.156425;45.013397;58.134033;;
79288;Laerm;68737;53.946;27.634;2023-04-10T02:46:59;50.655533;45.347054;60.316254;;
79288;Laerm;68737;53.946;27.634;2023-04-10T02:49:29;52.086479;45.309509;63.398140;;
79288;Laerm;68737;53.946;27.634;2023-04-10T02:51:59;51.318092;46.378250;62.292171;;
79288;Laerm;68737;53.946;27.634;2023-04-10T02:54:29;52.032089;45.293358;62.312191;;
79288;Laerm;68737;53.946;27.634;2023-04-10T02:56:59;51.315407;45.169952;71.961433;;
79288;Laerm;68737;53.946;27.634;2023-04-10T02:59:29;52.773224;46.483109;60.440403;;
79288;Laerm;68737;53.946;27.634;2023-04-10T03:01:59;51.922226;45.410805;60.858612;;
79288;Laerm;68737;53.946;27.634;2023-04-10T03:06:59;52.003532;45.821342;67.102844;;
79288;Laerm;68737;53.946;27.634;2023-04-10T03:09:29;54.441933;45.645561;71.918190;;
79288;Laerm;68737;53.946;27.634;2023-04-10T03:11:59;53.951492;48.677986;68.258972;;
79288;Laerm;68737;53.946;27.634;2023-04-10T03:14:29;53.499008;47.684662;64.738197;;
79288;Laerm;68737;53.946;27.634;2023-04-10T03:16:59;53.921135;46.911163;67.096359;;
79288;Laerm;68737;53.946;27.634;2023-04-10T03:19:29;53.128838;48.225716;63.402302;;
79288;Laerm;68737;53.946;27.634;2023-04-10T03:21:59;53.977509;48.605080;61.501595;;
79288;Laerm;68737;53.946;27.634;2023-04-10T03:24:29;53.640022;48.831406;59.204266;;
79288;Laerm;68737;53.946;27.634;2023-04-10T03:26:59;53.682304;47.823944;69.387756;;
79288;Laerm;68737;53.946;27.634;2023-04-10T03:29:29;54.315414;49.006485;65.516525;;
79288;Laerm;68737;53.946;27.634;2023-04-10T03:31:59;54.624710;48.884186;68.598282;;
79288;Laerm;68737;53.946;27.634;2023-04-10T03:34:29;55.498894;49.563919;68.522667;;
79288;Laerm;68737;53.946;27.634;2023-04-10T03:36:59;54.038361;48.501770;67.371536;;
79288;Laerm;68737;53.946;27.634;2023-04-10T03:39:29;53.078224;48.629074;62.089283;;
79288;Laerm;68737;53.946;27.634;2023-04-10T03:41:59;55.904198;50.384003;68.432007;;
79288;Laerm;68737;53.946;27.634;2023-04-10T03:44:29;53.484207;48.162720;62.884918;;
79288;Laerm;68737;53.946;27.634;2023-04-10T03:46:59;54.005028;49.462814;59.964668;;
79288;Laerm;68737;53.946;27.634;2023-04-10T03:49:29;55.527100;50.245369;65.187698;;
79288;Laerm;68737;53.946;27.634;2023-04-10T03:51:59;53.598984;49.721184;58.885056;;
79288;Laerm;68737;53.946;27.634;2023-04-10T03:54:29;54.028198;50.288261;58.696259;;
79288;Laerm;68737;53.946;27.634;2023-04-10T03:56:59;55.958801;50.712395;62.426712;;
79288;Laerm;68737;53.946;27.634;2023-04-10T03:59:29;56.455544;51.259140;65.501144;;
79288;Laerm;68737;53.946;27.634;2023-04-10T04:01:59;56.262558;51.497337;70.127563;;
79288;Laerm;68737;53.946;27.634;2023-04-10T04:04:29;55.431595;51.506584;62.493996;;
79288;Laerm;68737;53.946;27.634;2023-04-10T04:06:59;55.751068;51.822319;62.793598;;
79288;Laerm;68737;53.946;27.634;2023-04-10T04:09:29;57.735588;53.038216;68.154984;;
79288;Laerm;68737;53.946;27.634;2023-04-10T04:11:59;57.279274;53.550812;62.534885;;
79288;Laerm;68737;53.946;27.634;2023-04-10T04:14:29;56.833023;52.433563;78.383728;;
79288;Laerm;68737;53.946;27.634;2023-04-10T04:16:59;57.535866;53.208641;63.568447;;
79288;Laerm;68737;53.946;27.634;2023-04-10T04:19:29;58.309395;54.011871;75.532196;;
79288;Laerm;68737;53.946;27.634;2023-04-10T04:21:59;59.744362;53.534966;68.123322;;
79288;Laerm;68737;53.946;27.634;2023-04-10T04:24:29;58.044563;53.400093;66.261871;;
79288;Laerm;68737;53.946;27.634;2023-04-10T04:26:59;57.598129;53.698250;68.000732;;
79288;Laerm;68737;53.946;27.634;2023-04-10T04:29:29;58.207901;54.530617;71.779144;;
79288;Laerm;68737;53.946;27.634;2023-04-10T04:31:59;59.029224;54.577011;67.483475;;
79288;Laerm;68737;53.946;27.634;2023-04-10T04:34:29;59.102173;53.833473;68.374680;;
79288;Laerm;68737;53.946;27.634;2023-04-10T04:36:59;59.352951;54.345673;70.516342;;
79288;Laerm;68737;53.946;27.634;2023-04-10T04:39:29;59.960743;55.662155;67.959351;;
79288;Laerm;68737;53.946;27.634;2023-04-10T04:41:59;58.868034;54.626038;69.272766;;
79288;Laerm;68737;53.946;27.634;2023-04-10T04:44:29;58.986435;55.459480;72.837372;;
79288;Laerm;68737;53.946;27.634;2023-04-10T04:46:59;59.142498;54.249016;65.014404;;
79288;Laerm;68737;53.946;27.634;2023-04-10T04:49:29;58.187813;53.808624;63.494392;;
79288;Laerm;68737;53.946;27.634;2023-04-10T04:51:59;58.374794;54.386620;64.042419;;
79288;Laerm;68737;53.946;27.634;2023-04-10T04:54:29;58.261986;54.273422;66.834198;;
79288;Laerm;68737;53.946;27.634;2023-04-10T04:56:59;60.160709;54.512672;72.920944;;
79288;Laerm;68737;53.946;27.634;2023-04-10T04:59:29;59.886826;55.641426;67.720146;;
79288;Laerm;68737;53.946;27.634;2023-04-10T05:01:59;59.047153;55.393295;74.010742;;
79288;Laerm;68737;53.946;27.634;2023-04-10T05:04:29;58.642044;54.557388;64.784958;;
79288;Laerm;68737;53.946;27.634;2023-04-10T05:06:59;59.335190;55.097435;64.135780;;
79288;Laerm;68737;53.946;27.634;2023-04-10T05:09:29;59.898949;55.830597;67.706436;;
79288;Laerm;68737;53.946;27.634;2023-04-10T05:11:59;61.169098;55.428513;84.362900;;
79288;Laerm;68737;53.946;27.634;2023-04-10T05:14:29;59.601570;56.026787;64.274216;;
79288;Laerm;68737;53.946;27.634;2023-04-10T05:16:59;58.882050;56.144051;63.356167;;
79288;Laerm;68737;53.946;27.634;2023-04-10T05:19:29;59.716702;55.371056;70.998642;;
79288;Laerm;68737;53.946;27.634;2023-04-10T05:21:59;59.932163;55.477295;68.128304;;
79288;Laerm;68737;53.946;27.634;2023-04-10T05:24:29;59.560650;55.682182;69.098618;;
79288;Laerm;68737;53.946;27.634;2023-04-10T05:26:59;59.083408;55.093056;65.607483;;
79288;Laerm;68737;53.946;27.634;2023-04-10T05:29:29;59.714813;53.792099;69.335892;;
79288;Laerm;68737;53.946;27.634;2023-04-10T05:31:59;58.617355;54.631660;69.135483;;
79288;Laerm;68737;53.946;27.634;2023-04-10T05:34:29;57.776054;54.080505;63.717579;;
79288;Laerm;68737;53.946;27.634;2023-04-10T05:36:59;58.095467;53.878441;63.873966;;
79288;Laerm;68737;53.946;27.634;2023-04-10T05:39:29;57.785439;53.389565;66.625702;;
79288;Laerm;68737;53.946;27.634;2023-04-10T05:41:59;58.413368;54.137321;63.163898;;
79288;Laerm;68737;53.946;27.634;2023-04-10T05:44:29;60.083847;53.472603;70.173759;;
79288;Laerm;68737;53.946;27.634;2023-04-10T05:46:59;60.343105;53.222870;85.041489;;
79288;Laerm;68737;53.946;27.634;2023-04-10T05:49:29;57.625534;53.023621;62.012440;;
79288;Laerm;68737;53.946;27.634;2023-04-10T05:51:59;57.172211;52.506523;63.103619;;
79288;Laerm;68737;53.946;27.634;2023-04-10T05:54:29;58.060249;53.416542;64.033417;;
79288;Laerm;68737;53.946;27.634;2023-04-10T05:56:59;57.713974;53.470276;63.678837;;
79288;Laerm;68737;53.946;27.634;2023-04-10T05:59:29;61.151081;53.241470;78.204071;;
79288;Laerm;68737;53.946;27.634;2023-04-10T06:02:00;58.454498;53.066193;64.724731;;
79288;Laerm;68737;53.946;27.634;2023-04-10T06:04:29;56.863693;51.575089;65.290085;;
79288;Laerm;68737;53.946;27.634;2023-04-10T06:06:59;56.439468;50.869545;62.058777;;
79288;Laerm;68737;53.946;27.634;2023-04-10T06:09:29;56.903671;50.584038;80.536560;;
79288;Laerm;68737;53.946;27.634;2023-04-10T06:11:59;57.539291;49.890717;66.699677;;
79288;Laerm;68737;53.946;27.634;2023-04-10T06:14:29;56.045128;49.175987;71.419472;;
79288;Laerm;68737;53.946;27.634;2023-04-10T06:16:59;55.808029;49.419380;62.764629;;
79288;Laerm;68737;53.946;27.634;2023-04-10T06:19:29;58.010674;49.548912;69.785233;;
79288;Laerm;68737;53.946;27.634;2023-04-10T06:21:59;56.049690;49.094185;65.080536;;
79288;Laerm;68737;53.946;27.634;2023-04-10T06:24:29;58.010399;48.697838;69.562790;;
79288;Laerm;68737;53.946;27.634;2023-04-10T06:26:59;54.874741;47.126419;71.844788;;
79288;Laerm;68737;53.946;27.634;2023-04-10T06:29:29;56.287468;46.685204;65.613701;;
79288;Laerm;68737;53.946;27.634;2023-04-10T06:31:59;55.385551;45.317101;68.779861;;
79288;Laerm;68737;53.946;27.634;2023-04-10T06:34:29;53.840721;46.173218;64.103218;;
79288;Laerm;68737;53.946;27.634;2023-04-10T06:36:59;59.284771;47.538445;72.639923;;
79288;Laerm;68737;53.946;27.634;2023-04-10T06:39:29;54.462685;45.184738;68.058777;;
79288;Laerm;68737;53.946;27.634;2023-04-10T06:41:59;55.340637;46.175964;64.186913;;
79288;Laerm;68737;53.946;27.634;2023-04-10T06:44:29;56.065369;46.338234;66.255692;;
79288;Laerm;68737;53.946;27.634;2023-04-10T06:46:59;53.796799;44.928566;61.790302;;
79288;Laerm;68737;53.946;27.634;2023-04-10T06:49:29;52.526199;44.290482;62.825161;;
79288;Laerm;68737;53.946;27.634;2023-04-10T06:51:59;55.000458;45.765251;61.325130;;
79288;Laerm;68737;53.946;27.634;2023-04-10T06:54:29;53.593796;44.428146;63.706963;;
79288;Laerm;68737;53.946;27.634;2023-04-10T06:56:59;57.051407;45.143837;73.202911;;
79288;Laerm;68737;53.946;27.634;2023-04-10T06:59:29;53.383125;45.217621;64.872292;;
79288;Laerm;68737;53.946;27.634;2023-04-10T07:01:59;56.767952;46.201820;70.983597;;
79288;Laerm;68737;53.946;27.634;2023-04-10T07:04:29;56.434921;45.531586;71.963043;;
79288;Laerm;68737;53.946;27.634;2023-04-10T07:06:59;52.930878;44.340866;66.972595;;
79288;Laerm;68737;53.946;27.634;2023-04-10T07:09:29;54.491432;44.224792;65.683167;;
79288;Laerm;68737;53.946;27.634;2023-04-10T07:11:59;60.843784;49.061920;72.865219;;
79288;Laerm;68737;53.946;27.634;2023-04-10T07:14:30;54.562927;46.927315;63.047962;;
79288;Laerm;68737;53.946;27.634;2023-04-10T07:16:59;52.867828;45.289429;61.547691;;
79288;Laerm;68737;53.946;27.634;2023-04-10T07:19:29;54.624039;45.489853;64.410538;;
79288;Laerm;68737;53.946;27.634;2023-04-10T07:21:59;53.870399;44.597290;62.633316;;
79288;Laerm;68737;53.946;27.634;2023-04-10T07:24:29;55.021759;43.844246;68.165802;;
79288;Laerm;68737;53.946;27.634;2023-04-10T07:26:59;53.244423;46.868286;64.002853;;
79288;Laerm;68737;53.946;27.634;2023-04-10T07:29:29;54.936066;44.053406;73.303757;;
79288;Laerm;68737;53.946;27.634;2023-04-10T07:31:59;53.111893;42.588089;61.370846;;
79288;Laerm;68737;53.946;27.634;2023-04-10T07:34:29;54.625481;43.693771;63.447632;;
79288;Laerm;68737;53.946;27.634;2023-04-10T07:36:59;53.190376;43.598495;65.306488;;
79288;Laerm;68737;53.946;27.634;2023-04-10T07:39:29;53.510361;43.804070;64.672577;;
79288;Laerm;68737;53.946;27.634;2023-04-10T07:41:59;54.887100;45.206268;63.473888;;
79288;Laerm;68737;53.946;27.634;2023-04-10T07:44:29;53.928955;45.103630;61.801598;;
79288;Laerm;68737;53.946;27.634;2023-04-10T07:46:59;53.616753;44.715836;63.751968;;
79288;Laerm;68737;53.946;27.634;2023-04-10T07:49:29;54.857246;45.327057;63.522587;;
79288;Laerm;68737;53.946;27.634;2023-04-10T07:51:59;57.489754;46.389206;70.509979;;
79288;Laerm;68737;53.946;27.634;2023-04-10T07:56:59;55.912071;45.103226;68.576965;;
79288;Laerm;68737;53.946;27.634;2023-04-10T07:59:29;52.847954;45.094795;58.945808;;
79288;Laerm;68737;53.946;27.634;2023-04-10T08:01:59;55.085434;43.402023;65.615265;;
79288;Laerm;68737;53.946;27.634;2023-04-10T08:04:29;55.205399;44.510712;66.799881;;
79288;Laerm;68737;53.946;27.634;2023-04-10T08:06:59;54.655350;45.050972;67.561829;;
79288;Laerm;68737;53.946;27.634;2023-04-10T08:09:29;53.162315;44.491417;65.164581;;
79288;Laerm;68737;53.946;27.634;2023-04-10T08:11:59;52.847038;44.416885;67.453491;;
79288;Laerm;68737;53.946;27.634;2023-04-10T08:14:29;54.217972;45.168434;67.879395;;
79288;Laerm;68737;53.946;27.634;2023-04-10T08:16:59;54.274696;45.012329;63.975750;;
79288;Laerm;68737;53.946;27.634;2023-04-10T08:19:29;55.879585;47.128349;68.399414;;
79288;Laerm;68737;53.946;27.634;2023-04-10T08:21:59;53.502815;43.928879;65.941956;;
79288;Laerm;68737;53.946;27.634;2023-04-10T08:24:29;54.141304;44.067421;67.434288;;
79288;Laerm;68737;53.946;27.634;2023-04-10T08:26:59;55.426674;46.148857;68.557358;;
79288;Laerm;68737;53.946;27.634;2023-04-10T08:29:29;53.592842;46.352669;61.660835;;
79288;Laerm;68737;53.946;27.634;2023-04-10T08:31:59;54.097565;45.399437;68.526947;;
79288;Laerm;68737;53.946;27.634;2023-04-10T08:34:29;53.073273;45.293373;63.484104;;
79288;Laerm;68737;53.946;27.634;2023-04-10T08:36:59;54.936302;46.290787;65.218231;;
79288;Laerm;68737;53.946;27.634;2023-04-10T08:39:29;57.722618;43.604149;71.420311;;
79288;Laerm;68737;53.946;27.634;2023-04-10T08:41:59;57.750854;45.371193;70.634155;;
79288;Laerm;68737;53.946;27.634;2023-04-10T08:44:29;54.570091;45.196907;66.836212;;
79288;Laerm;68737;53.946;27.634;2023-04-10T08:46:59;54.051765;46.291634;62.719109;;
79288;Laerm;68737;53.946;27.634;2023-04-10T08:51:59;56.560493;45.422089;66.277718;;
79288;Laerm;68737;53.946;27.634;2023-04-10T08:54:31;53.412651;45.501305;63.218983;;
79288;Laerm;68737;53.946;27.634;2023-04-10T08:56:59;53.838852;43.673683;63.817631;;
79288;Laerm;68737;53.946;27.634;2023-04-10T08:59:29;53.464455;44.165672;60.070869;;
79288;Laerm;68737;53.946;27.634;2023-04-10T09:01:59;55.257797;44.686661;75.177467;;
79288;Laerm;68737;53.946;27.634;2023-04-10T09:04:29;52.164337;44.904678;64.585464;;
79288;Laerm;68737;53.946;27.634;2023-04-10T09:06:59;53.492622;46.223732;61.245682;;
79288;Laerm;68737;53.946;27.634;2023-04-10T09:09:29;53.683189;46.748856;60.540436;;
79288;Laerm;68737;53.946;27.634;2023-04-10T09:11:59;53.923897;43.051476;64.742645;;
79288;Laerm;68737;53.946;27.634;2023-04-10T09:14:30;54.015091;44.644447;62.400532;;
79288;Laerm;68737;53.946;27.634;2023-04-10T09:19:29;52.719391;43.894020;60.576111;;
79288;Laerm;68737;53.946;27.634;2023-04-10T09:21:59;58.895790;46.334457;69.501404;;
79288;Laerm;68737;53.946;27.634;2023-04-10T09:24:29;55.295624;44.102516;67.814705;;
79288;Laerm;68737;53.946;27.634;2023-04-10T09:26:59;57.679108;44.531021;80.948311;;
79288;Laerm;68737;53.946;27.634;2023-04-10T09:31:59;53.310966;44.962227;67.624054;;
79288;Laerm;68737;53.946;27.634;2023-04-10T09:34:29;54.670555;44.474724;62.683475;;
79288;Laerm;68737;53.946;27.634;2023-04-10T09:36:59;53.634377;45.125710;61.375362;;
79288;Laerm;68737;53.946;27.634;2023-04-10T09:39:32;53.886513;45.121490;64.306458;;
79288;Laerm;68737;53.946;27.634;2023-04-10T09:41:59;54.006248;46.510323;64.178795;;
79288;Laerm;68737;53.946;27.634;2023-04-10T09:49:34;53.772507;44.394150;67.857681;;
79288;Laerm;68737;53.946;27.634;2023-04-10T09:51:59;54.499741;45.706390;66.213089;;
79288;Laerm;68737;53.946;27.634;2023-04-10T09:56:59;54.020218;45.683769;64.204468;;
79288;Laerm;68737;53.946;27.634;2023-04-10T09:59:29;56.323738;44.387680;75.624840;;
79288;Laerm;68737;53.946;27.634;2023-04-10T10:01:59;54.752510;43.320053;61.188194;;
79288;Laerm;68737;53.946;27.634;2023-04-10T10:04:29;54.458557;42.362961;63.909924;;
79288;Laerm;68737;53.946;27.634;2023-04-10T10:06:59;53.039314;43.679497;64.140663;;
79288;Laerm;68737;53.946;27.634;2023-04-10T10:09:29;55.244362;46.780251;65.213272;;
79288;Laerm;68737;53.946;27.634;2023-04-10T10:11:59;55.694572;45.942490;64.680138;;
79288;Laerm;68737;53.946;27.634;2023-04-10T10:14:29;54.055229;46.490318;60.305870;;
79288;Laerm;68737;53.946;27.634;2023-04-10T10:16:59;55.624535;47.677795;63.883854;;
79288;Laerm;68737;53.946;27.634;2023-04-10T10:21:59;54.671089;45.430298;62.450958;;
79288;Laerm;68737;53.946;27.634;2023-04-10T10:24:29;59.860279;46.808617;70.660782;;
79288;Laerm;68737;53.946;27.634;2023-04-10T10:26:59;54.052437;46.358376;63.620106;;
79288;Laerm;68737;53.946;27.634;2023-04-10T10:29:30;56.685249;46.560402;67.047623;;
79288;Laerm;68737;53.946;27.634;2023-04-10T10:31:59;54.854599;45.984924;68.247116;;
79288;Laerm;68737;53.946;27.634;2023-04-10T10:34:29;55.637924;45.563828;66.576996;;
79288;Laerm;68737;53.946;27.634;2023-04-10T10:36:59;56.465385;47.026436;67.541611;;
79288;Laerm;68737;53.946;27.634;2023-04-10T10:44:33;54.525009;44.742172;65.858902;;
79288;Laerm;68737;53.946;27.634;2023-04-10T10:51:59;56.701904;45.413971;67.964539;;
79288;Laerm;68737;53.946;27.634;2023-04-10T10:54:29;55.026344;44.287605;63.742592;;
79288;Laerm;68737;53.946;27.634;2023-04-10T10:56:59;53.877914;46.123825;64.992722;;
79288;Laerm;68737;53.946;27.634;2023-04-10T11:06:59;56.396942;45.235077;68.631577;;
79288;Laerm;68737;53.946;27.634;2023-04-10T11:11:59;55.161446;45.221642;66.285446;;
79288;Laerm;68737;53.946;27.634;2023-04-10T11:14:29;54.277725;45.502151;62.571392;;
79288;Laerm;68737;53.946;27.634;2023-04-10T11:16:59;51.743935;44.247665;64.192001;;
79288;Laerm;68737;53.946;27.634;2023-04-10T11:19:29;54.954063;44.169914;65.454086;;
79288;Laerm;68737;53.946;27.634;2023-04-10T11:21:59;55.014107;46.615524;66.977211;;
79288;Laerm;68737;53.946;27.634;2023-04-10T11:24:29;53.229134;43.743912;61.258892;;
79288;Laerm;68737;53.946;27.634;2023-04-10T11:26:59;56.298065;47.822525;69.256210;;
79288;Laerm;68737;53.946;27.634;2023-04-10T11:31:59;56.218536;46.197029;66.742371;;
79288;Laerm;68737;53.946;27.634;2023-04-10T11:34:29;53.649582;45.754524;74.189880;;
79288;Laerm;68737;53.946;27.634;2023-04-10T11:36:59;55.791504;44.089577;66.537720;;
79288;Laerm;68737;53.946;27.634;2023-04-10T11:39:29;53.084862;45.239433;60.532906;;
79288;Laerm;68737;53.946;27.634;2023-04-10T11:41:59;54.026337;43.444702;71.181206;;
79288;Laerm;68737;53.946;27.634;2023-04-10T11:46:59;56.070259;48.213371;63.418190;;
79288;Laerm;68737;53.946;27.634;2023-04-10T11:49:30;55.754028;44.385056;62.573490;;
79288;Laerm;68737;53.946;27.634;2023-04-10T11:51:59;56.699631;44.433960;63.593761;;
79288;Laerm;68737;53.946;27.634;2023-04-10T11:54:29;55.406982;45.033508;65.019684;;
79288;Laerm;68737;53.946;27.634;2023-04-10T12:04:29;56.983780;48.562912;65.840218;;
79288;Laerm;68737;53.946;27.634;2023-04-10T12:06:59;56.002487;46.097473;63.865456;;
79288;Laerm;68737;53.946;27.634;2023-04-10T12:09:29;54.712524;43.751701;61.805664;;
79288;Laerm;68737;53.946;27.634;2023-04-10T12:14:30;52.707581;44.248093;62.354473;;
79288;Laerm;68737;53.946;27.634;2023-04-10T12:16:59;53.258934;43.447304;61.265545;;
79288;Laerm;68737;53.946;27.634;2023-04-10T12:19:29;52.179008;43.751312;60.422466;;
79288;Laerm;68737;53.946;27.634;2023-04-10T12:21:59;54.397270;44.756836;63.410229;;
79288;Laerm;68737;53.946;27.634;2023-04-10T12:26:59;54.310921;46.625641;62.023781;;
79288;Laerm;68737;53.946;27.634;2023-04-10T12:29:29;53.852684;45.034515;68.626266;;
79288;Laerm;68737;53.946;27.634;2023-04-10T12:32:05;55.405518;45.915894;80.366074;;
79288;Laerm;68737;53.946;27.634;2023-04-10T12:34:29;55.382553;45.174721;76.447380;;
79288;Laerm;68737;53.946;27.634;2023-04-10T12:36:59;54.136719;46.578583;65.799301;;
79288;Laerm;68737;53.946;27.634;2023-04-10T12:39:29;53.070290;43.664299;62.920376;;
79288;Laerm;68737;53.946;27.634;2023-04-10T12:44:29;52.741287;43.485886;61.371918;;
79288;Laerm;68737;53.946;27.634;2023-04-10T12:46:59;54.274162;46.930672;69.673340;;
79288;Laerm;68737;53.946;27.634;2023-04-10T12:49:29;54.220566;44.201706;63.764217;;
79288;Laerm;68737;53.946;27.634;2023-04-10T12:51:59;54.761719;45.030479;67.384689;;
79288;Laerm;68737;53.946;27.634;2023-04-10T12:54:29;55.632858;47.319107;62.317135;;
79288;Laerm;68737;53.946;27.634;2023-04-10T12:56:59;59.604328;44.943207;81.866852;;
79288;Laerm;68737;53.946;27.634;2023-04-10T12:59:29;53.557419;43.466789;61.094170;;
79288;Laerm;68737;53.946;27.634;2023-04-10T13:01:59;54.573967;44.673599;64.925949;;
79288;Laerm;68737;53.946;27.634;2023-04-10T13:04:29;56.638931;46.667885;66.646561;;
79288;Laerm;68737;53.946;27.634;2023-04-10T13:06:59;54.705193;46.513039;64.852173;;
79288;Laerm;68737;53.946;27.634;2023-04-10T13:09:29;54.856140;43.807167;68.576500;;
79288;Laerm;68737;53.946;27.634;2023-04-10T13:11:59;54.812553;45.671700;72.248993;;
79288;Laerm;68737;53.946;27.634;2023-04-10T13:14:29;55.854698;45.529068;67.432205;;